createdAt,value
2023-05-16T00:00:40.746Z,100.00
2023-05-16T00:03:24.506Z,100.00
2023-05-16T00:05:51.260Z,100.00
2023-05-16T00:08:18.446Z,100.00
2023-05-16T00:10:45.280Z,100.00
2023-05-16T00:13:12.396Z,100.00
2023-05-16T00:15:39.821Z,100.00
2023-05-16T00:18:07.269Z,100.00
2023-05-16T00:20:34.790Z,100.00
2023-05-16T00:23:02.097Z,100.00
2023-05-16T00:25:29.065Z,100.00
2023-05-16T00:27:56.252Z,100.00
2023-05-16T00:30:22.981Z,100.00
2023-05-16T00:32:50.083Z,100.00
2023-05-16T00:35:17.125Z,100.00
2023-05-16T00:37:44.171Z,100.00
2023-05-16T00:40:11.467Z,100.00
2023-05-16T00:42:39.010Z,100.00
2023-05-16T00:45:06.487Z,100.00
2023-05-16T00:47:33.833Z,100.00
2023-05-16T00:50:01.929Z,100.00
2023-05-16T00:52:29.085Z,100.00
2023-05-16T00:54:55.936Z,100.00
2023-05-16T00:57:23.683Z,100.00
2023-05-16T00:59:51.133Z,100.00
2023-05-16T01:02:18.316Z,100.00
2023-05-16T01:04:46.132Z,100.00
2023-05-16T01:07:13.163Z,100.00
2023-05-16T01:09:40.405Z,100.00
2023-05-16T01:12:26.052Z,100.00
2023-05-16T01:14:55.983Z,100.00
2023-05-16T01:17:28.931Z,100.00
2023-05-16T01:20:22.285Z,100.00
2023-05-16T01:23:08.381Z,100.00
2023-05-16T01:25:35.148Z,100.00
2023-05-16T01:28:03.305Z,100.00
2023-05-16T01:30:33.789Z,100.00
2023-05-16T01:33:01.268Z,100.00
2023-05-16T01:35:28.680Z,100.00
2023-05-16T01:37:55.961Z,100.00
2023-05-16T01:41:01.393Z,100.00
2023-05-16T01:43:35.660Z,100.00
2023-05-16T01:46:10.712Z,100.00
2023-05-16T01:48:58.044Z,100.00
2023-05-16T01:51:28.110Z,100.00
2023-05-16T01:53:58.627Z,100.00
2023-05-16T01:56:26.842Z,100.00
2023-05-16T01:58:55.014Z,100.00
2023-05-16T02:01:21.824Z,100.00
2023-05-16T02:03:48.998Z,100.00
2023-05-16T02:06:15.912Z,100.00
2023-05-16T02:08:43.053Z,100.00
2023-05-16T02:11:09.758Z,100.00
2023-05-16T02:13:37.303Z,100.00
2023-05-16T02:16:04.419Z,100.00
2023-05-16T02:18:32.062Z,100.00
2023-05-16T02:20:58.982Z,100.00
2023-05-16T02:23:25.965Z,100.00
2023-05-16T02:25:52.622Z,100.00
2023-05-16T02:28:19.785Z,100.00
2023-05-16T02:30:46.740Z,100.00
2023-05-16T02:33:13.802Z,100.00
2023-05-16T02:35:40.874Z,100.00
2023-05-16T02:38:07.985Z,100.00
2023-05-16T02:43:25.087Z,100.00
2023-05-16T02:45:53.162Z,100.00
2023-05-16T02:48:20.081Z,100.00
2023-05-16T02:50:47.126Z,100.00
2023-05-16T02:53:13.905Z,100.00
2023-05-16T02:55:41.073Z,100.00
2023-05-16T02:58:08.336Z,100.00
2023-05-16T03:00:35.383Z,100.00
2023-05-16T03:03:02.373Z,100.00
2023-05-16T03:05:29.820Z,100.00
2023-05-16T03:07:56.773Z,100.00
2023-05-16T03:10:23.864Z,100.00
2023-05-16T03:12:51.103Z,100.00
2023-05-16T03:15:18.184Z,100.00
2023-05-16T03:17:45.011Z,100.00
2023-05-16T03:20:12.377Z,100.00
2023-05-16T03:22:40.510Z,100.00
2023-05-16T03:25:08.021Z,100.00
2023-05-16T03:27:34.851Z,100.00
2023-05-16T03:30:02.560Z,100.00
2023-05-16T03:32:29.443Z,100.00
2023-05-16T03:34:56.607Z,100.00
2023-05-16T03:37:23.405Z,100.00
2023-05-16T03:39:51.087Z,100.00
2023-05-16T03:42:18.579Z,100.00
2023-05-16T03:44:45.837Z,100.00
2023-05-16T03:47:12.711Z,100.00
2023-05-16T03:49:40.062Z,100.00
2023-05-16T03:52:07.249Z,100.00
2023-05-16T03:54:34.363Z,100.00
2023-05-16T03:57:01.627Z,100.00
2023-05-16T03:59:28.675Z,100.00
2023-05-16T04:01:55.718Z,100.00
2023-05-16T04:04:22.813Z,100.00
2023-05-16T04:06:49.534Z,100.00
2023-05-16T04:09:16.669Z,100.00
2023-05-16T04:11:43.469Z,100.00
2023-05-16T04:14:10.582Z,100.00
2023-05-16T04:16:37.461Z,100.00
2023-05-16T04:19:04.664Z,100.00
2023-05-16T04:21:31.947Z,100.00
2023-05-16T04:23:59.170Z,100.00
2023-05-16T04:26:27.678Z,100.00
2023-05-16T04:28:54.713Z,100.00
2023-05-16T04:31:23.171Z,100.00
2023-05-16T04:33:50.447Z,100.00
2023-05-16T04:36:17.144Z,100.00
2023-05-16T04:38:44.419Z,100.00
2023-05-16T04:41:11.281Z,100.00
2023-05-16T04:43:38.366Z,100.00
2023-05-16T04:46:05.484Z,100.00
2023-05-16T04:48:32.772Z,100.00
2023-05-16T04:50:59.592Z,100.00
2023-05-16T04:53:26.656Z,100.00
2023-05-16T04:55:53.474Z,100.00
2023-05-16T04:58:20.671Z,100.00
2023-05-16T05:00:47.658Z,96.17
2023-05-16T05:03:14.740Z,97.37
2023-05-16T05:05:41.552Z,93.57
2023-05-16T05:08:08.602Z,90.06
2023-05-16T05:10:35.612Z,90.59
2023-05-16T05:13:02.710Z,90.24
2023-05-16T05:15:29.811Z,90.72
2023-05-16T05:17:57.111Z,90.17
2023-05-16T05:20:24.015Z,91.57
2023-05-16T05:22:51.058Z,91.56
2023-05-16T05:25:17.909Z,90.98
2023-05-16T05:27:44.957Z,92.85
2023-05-16T05:30:12.006Z,91.85
2023-05-16T05:32:39.205Z,92.43
2023-05-16T05:35:06.331Z,89.98
2023-05-16T05:37:33.861Z,93.35
2023-05-16T05:40:00.758Z,85.51
2023-05-16T05:42:27.795Z,87.29
2023-05-16T05:44:55.069Z,89.34
2023-05-16T05:47:22.310Z,88.19
2023-05-16T05:49:49.103Z,88.94
2023-05-16T05:52:16.145Z,86.16
2023-05-16T05:54:42.957Z,85.94
2023-05-16T05:57:09.961Z,87.19
2023-05-16T05:59:36.829Z,88.68
2023-05-16T06:02:04.080Z,90.49
2023-05-16T06:04:31.304Z,87.94
2023-05-16T06:06:58.400Z,84.98
2023-05-16T06:09:25.194Z,84.17
2023-05-16T06:11:52.285Z,79.36
2023-05-16T06:14:20.089Z,79.21
2023-05-16T06:16:47.192Z,80.22
2023-05-16T06:19:16.353Z,82.14
2023-05-16T06:21:43.922Z,82.71
2023-05-16T06:24:11.322Z,83.18
2023-05-16T06:26:38.408Z,83.17
2023-05-16T06:29:05.171Z,81.85
2023-05-16T06:31:32.399Z,82.04
2023-05-16T06:33:59.311Z,83.23
2023-05-16T06:36:26.456Z,82.14
2023-05-16T06:38:53.320Z,82.87
2023-05-16T06:41:21.577Z,80.42
2023-05-16T06:43:48.410Z,77.94
2023-05-16T06:46:16.132Z,80.36
2023-05-16T06:48:42.933Z,79.91
2023-05-16T06:51:10.424Z,78.89
2023-05-16T06:53:37.298Z,79.11
2023-05-16T06:56:04.496Z,76.58
2023-05-16T06:58:31.643Z,76.58
2023-05-16T07:00:58.771Z,75.95
2023-05-16T07:03:26.087Z,75.97
2023-05-16T07:05:53.236Z,75.69
2023-05-16T07:08:20.064Z,72.32
2023-05-16T07:10:47.224Z,69.45
2023-05-16T07:13:14.086Z,70.93
2023-05-16T07:15:41.269Z,70.79
2023-05-16T07:18:08.364Z,71.52
2023-05-16T07:20:35.516Z,69.80
2023-05-16T07:23:02.365Z,70.81
2023-05-16T07:25:30.219Z,71.50
2023-05-16T07:27:57.200Z,68.45
2023-05-16T07:30:24.746Z,67.76
2023-05-16T07:32:51.770Z,63.42
2023-05-16T07:35:19.065Z,62.34
2023-05-16T07:37:46.066Z,63.76
2023-05-16T07:40:13.750Z,61.73
2023-05-16T07:42:40.579Z,59.78
2023-05-16T07:45:08.416Z,60.79
2023-05-16T07:47:35.650Z,62.07
2023-05-16T07:50:02.910Z,61.11
2023-05-16T07:52:29.759Z,56.67
2023-05-16T07:54:56.994Z,57.40
2023-05-16T07:57:25.078Z,54.75
2023-05-16T07:59:52.834Z,55.32
2023-05-16T08:02:19.979Z,53.89
2023-05-16T08:04:47.220Z,51.34
2023-05-16T08:07:14.087Z,50.96
2023-05-16T08:09:41.196Z,49.71
2023-05-16T08:12:08.531Z,49.62
2023-05-16T08:14:37.167Z,43.66
2023-05-16T08:17:04.223Z,43.04
2023-05-16T08:19:33.078Z,44.50
2023-05-16T08:21:59.949Z,45.97
2023-05-16T08:24:27.305Z,45.13
2023-05-16T08:26:54.322Z,42.98
2023-05-16T08:29:22.082Z,43.48
2023-05-16T08:31:48.972Z,44.72
2023-05-16T08:34:16.286Z,42.43
2023-05-16T08:36:43.123Z,42.45
2023-05-16T08:39:13.105Z,43.23
2023-05-16T08:41:40.031Z,41.04
2023-05-16T08:44:07.306Z,37.72
2023-05-16T08:46:37.529Z,38.95
2023-05-16T08:49:08.019Z,39.61
2023-05-16T08:51:35.746Z,42.26
2023-05-16T08:54:13.524Z,43.49
2023-05-16T08:56:44.422Z,42.89
2023-05-16T08:59:15.192Z,43.10
2023-05-16T09:01:42.277Z,43.65
2023-05-16T09:04:10.434Z,42.28
2023-05-16T09:06:37.699Z,42.51
2023-05-16T09:09:08.022Z,42.71
2023-05-16T09:11:37.108Z,40.09
2023-05-16T09:14:05.719Z,40.49
2023-05-16T09:16:32.802Z,37.34
2023-05-16T09:19:01.696Z,38.11
2023-05-16T09:21:29.762Z,35.83
2023-05-16T09:23:56.875Z,37.03
2023-05-16T09:26:23.750Z,35.16
2023-05-16T09:28:53.811Z,33.44
2023-05-16T09:31:26.864Z,35.25
2023-05-16T09:33:56.663Z,32.00
2023-05-16T09:36:23.531Z,30.13
2023-05-16T09:38:51.776Z,31.42
2023-05-16T09:41:18.632Z,30.03
2023-05-16T09:43:45.920Z,30.95
2023-05-16T09:46:16.094Z,31.39
2023-05-16T09:48:46.848Z,32.82
2023-05-16T09:51:14.264Z,33.43
2023-05-16T09:53:44.295Z,31.42
2023-05-16T09:56:11.628Z,32.65
2023-05-16T09:58:39.822Z,32.46
2023-05-16T10:01:07.381Z,31.90
2023-05-16T10:03:35.584Z,31.91
2023-05-16T10:06:03.302Z,30.80
2023-05-16T10:08:31.919Z,31.55
2023-05-16T10:10:58.864Z,32.11
2023-05-16T10:13:29.572Z,32.39
2023-05-16T10:15:57.395Z,34.57
2023-05-16T10:18:31.309Z,34.70
2023-05-16T10:21:01.608Z,35.52
2023-05-16T10:23:28.774Z,36.02
2023-05-16T10:25:57.855Z,36.47
2023-05-16T10:28:25.120Z,37.39
2023-05-16T10:30:52.035Z,36.77
2023-05-16T10:33:19.924Z,35.83
2023-05-16T10:35:46.895Z,36.18
2023-05-16T10:38:17.342Z,34.67
2023-05-16T10:40:45.204Z,36.28
2023-05-16T10:43:22.799Z,36.70
2023-05-16T10:45:54.697Z,37.27
2023-05-16T10:48:29.164Z,38.63
2023-05-16T10:50:56.116Z,40.14
2023-05-16T10:53:23.148Z,41.20
2023-05-16T10:55:51.725Z,41.54
2023-05-16T10:58:23.045Z,43.24
2023-05-16T11:00:50.134Z,45.68
2023-05-16T11:03:25.548Z,47.53
2023-05-16T11:05:54.137Z,49.38
2023-05-16T11:08:21.290Z,51.37
2023-05-16T11:10:48.521Z,53.46
2023-05-16T11:13:19.724Z,54.38
2023-05-16T11:15:46.677Z,56.07
2023-05-16T11:18:17.455Z,57.82
2023-05-16T11:20:44.598Z,58.96
2023-05-16T11:23:18.670Z,58.64
2023-05-16T11:25:46.225Z,58.39
2023-05-16T11:28:14.435Z,57.55
2023-05-16T11:30:45.931Z,55.84
2023-05-16T11:33:13.598Z,55.17
2023-05-16T11:35:40.479Z,56.50
2023-05-16T11:38:12.076Z,57.71
2023-05-16T11:40:42.326Z,57.38
2023-05-16T11:43:09.490Z,56.68
2023-05-16T11:45:36.265Z,56.16
2023-05-16T11:48:08.128Z,57.02
2023-05-16T11:50:35.428Z,57.96
2023-05-16T11:53:02.778Z,56.67
2023-05-16T11:55:41.385Z,57.21
2023-05-16T11:58:10.352Z,59.29
2023-05-16T12:03:05.933Z,59.76
2023-05-16T12:05:34.977Z,60.21
2023-05-16T12:08:05.732Z,60.63
2023-05-16T12:10:35.819Z,60.26
2023-05-16T12:13:03.653Z,59.57
2023-05-16T12:15:31.132Z,60.23
2023-05-16T12:17:58.867Z,59.73
2023-05-16T12:20:26.467Z,58.76
2023-05-16T12:22:53.917Z,59.70
2023-05-16T12:25:21.792Z,59.84
2023-05-16T12:27:48.906Z,60.77
2023-05-16T12:30:19.051Z,63.24
2023-05-16T12:32:46.465Z,64.38
2023-05-16T12:35:13.454Z,63.13
2023-05-16T12:37:43.564Z,62.19
2023-05-16T12:40:12.691Z,63.95
2023-05-16T12:42:39.744Z,64.09
2023-05-16T12:45:15.109Z,64.45
2023-05-16T12:47:42.260Z,65.93
2023-05-16T12:50:10.192Z,66.55
2023-05-16T12:52:37.760Z,69.16
2023-05-16T12:55:05.005Z,69.65
2023-05-16T12:57:33.803Z,71.12
2023-05-16T13:00:01.575Z,71.34
2023-05-16T13:02:29.250Z,72.83
2023-05-16T13:04:56.371Z,72.77
2023-05-16T13:07:23.480Z,72.84
2023-05-16T13:09:50.227Z,73.20
2023-05-16T13:12:17.439Z,72.94
2023-05-16T13:14:45.277Z,73.37
2023-05-16T13:17:12.559Z,73.21
2023-05-16T13:19:39.342Z,72.85
2023-05-16T13:22:06.489Z,75.14
2023-05-16T13:24:33.671Z,74.89
2023-05-16T13:27:00.976Z,76.28
2023-05-16T13:29:27.939Z,77.61
2023-05-16T13:31:55.237Z,77.28
2023-05-16T13:34:22.254Z,77.47
2023-05-16T13:36:54.472Z,78.51
2023-05-16T13:39:22.459Z,78.77
2023-05-16T13:41:49.781Z,79.66
2023-05-16T13:44:16.816Z,79.88
2023-05-16T13:46:44.450Z,81.41
2023-05-16T13:49:11.401Z,82.43
2023-05-16T13:51:38.608Z,83.05
2023-05-16T13:54:05.618Z,84.01
2023-05-16T13:56:32.744Z,83.68
2023-05-16T13:59:05.924Z,84.05
2023-05-16T14:01:34.535Z,84.34
2023-05-16T14:04:01.554Z,84.74
2023-05-16T14:06:28.798Z,84.68
2023-05-16T14:08:55.700Z,84.56
2023-05-16T14:11:28.748Z,84.70
2023-05-16T14:13:56.693Z,84.49
2023-05-16T14:16:23.865Z,84.62
2023-05-16T14:18:50.955Z,83.13
2023-05-16T14:21:18.127Z,82.87
2023-05-16T14:23:45.337Z,82.97
2023-05-16T14:26:12.452Z,83.02
2023-05-16T14:28:39.457Z,83.53
2023-05-16T14:31:07.137Z,84.07
2023-05-16T14:33:33.931Z,84.35
2023-05-16T14:36:01.186Z,84.47
2023-05-16T14:38:28.246Z,84.21
2023-05-16T14:40:55.561Z,84.34
2023-05-16T14:43:22.422Z,84.71
2023-05-16T14:45:49.728Z,84.80
2023-05-16T14:48:17.301Z,84.52
2023-05-16T14:50:44.513Z,84.91
2023-05-16T14:53:11.429Z,85.72
2023-05-16T14:55:38.704Z,85.58
2023-05-16T14:58:05.904Z,86.31
2023-05-16T15:00:33.099Z,86.86
2023-05-16T15:03:00.008Z,87.28
2023-05-16T15:05:29.424Z,86.07
2023-05-16T15:07:56.378Z,86.58
2023-05-16T15:10:24.008Z,86.51
2023-05-16T15:12:50.836Z,86.12
2023-05-16T15:15:17.992Z,86.53
2023-05-16T15:17:44.867Z,87.07
2023-05-16T15:20:12.194Z,87.92
2023-05-16T15:22:40.522Z,88.09
2023-05-16T15:25:08.387Z,86.67
2023-05-16T15:27:35.262Z,86.23
2023-05-16T15:30:02.509Z,86.47
2023-05-16T15:32:29.539Z,86.54
2023-05-16T15:34:57.371Z,86.80
2023-05-16T15:37:24.202Z,87.52
2023-05-16T15:39:51.269Z,87.90
2023-05-16T15:42:20.016Z,88.08
2023-05-16T15:44:47.278Z,88.54
2023-05-16T15:47:14.199Z,88.66
2023-05-16T15:49:41.728Z,89.05
2023-05-16T15:52:08.963Z,89.29
2023-05-16T15:54:36.437Z,89.65
2023-05-16T15:57:03.335Z,89.83
2023-05-16T15:59:30.477Z,90.76
2023-05-16T16:01:57.377Z,91.46
2023-05-16T16:04:24.526Z,92.33
2023-05-16T16:06:51.366Z,92.81
2023-05-16T16:09:18.506Z,93.20
2023-05-16T16:11:45.457Z,94.16
2023-05-16T16:14:12.638Z,94.62
2023-05-16T16:16:40.735Z,95.18
2023-05-16T16:19:08.596Z,94.96
2023-05-16T16:21:36.061Z,95.23
2023-05-16T16:24:03.323Z,95.77
2023-05-16T16:26:31.891Z,95.99
2023-05-16T16:28:59.706Z,96.48
2023-05-16T16:31:26.650Z,96.86
2023-05-16T16:33:54.930Z,96.94
2023-05-16T16:36:21.754Z,97.02
2023-05-16T16:38:49.211Z,97.24
2023-05-16T16:41:16.688Z,97.68
2023-05-16T16:43:43.843Z,97.80
2023-05-16T16:46:10.740Z,97.95
2023-05-16T16:48:38.000Z,98.16
2023-05-16T16:51:05.178Z,98.12
2023-05-16T16:53:32.497Z,98.67
2023-05-16T16:55:59.385Z,99.41
2023-05-16T16:58:26.623Z,99.56
2023-05-16T17:00:53.469Z,100.00
2023-05-16T17:03:21.593Z,100.00
2023-05-16T17:05:48.596Z,100.00
2023-05-16T17:08:15.754Z,100.00
2023-05-16T17:10:42.557Z,100.00
2023-05-16T17:13:12.292Z,100.00
2023-05-16T17:15:39.166Z,100.00
2023-05-16T17:18:09.059Z,100.00
2023-05-16T17:20:36.404Z,100.00
2023-05-16T17:23:03.861Z,100.00
2023-05-16T17:25:30.823Z,100.00
2023-05-16T17:27:58.124Z,100.00
2023-05-16T17:30:25.107Z,100.00
2023-05-16T17:32:56.620Z,100.00
2023-05-16T17:35:23.515Z,100.00
2023-05-16T17:37:51.215Z,100.00
2023-05-16T17:40:18.270Z,100.00
2023-05-16T17:42:45.533Z,100.00
2023-05-16T17:45:16.318Z,100.00
2023-05-16T17:47:43.601Z,100.00
2023-05-16T17:50:10.975Z,100.00
2023-05-16T17:52:39.862Z,100.00
2023-05-16T17:55:07.383Z,100.00
2023-05-16T17:57:34.883Z,100.00
2023-05-16T18:00:01.881Z,100.00
2023-05-16T18:02:29.027Z,100.00
2023-05-16T18:04:55.942Z,100.00
2023-05-16T18:07:23.701Z,100.00
2023-05-16T18:09:50.644Z,100.00
2023-05-16T18:12:17.780Z,100.00
2023-05-16T18:14:45.602Z,100.00
2023-05-16T18:17:13.553Z,100.00
2023-05-16T18:19:40.448Z,100.00
2023-05-16T18:22:08.961Z,100.00
2023-05-16T18:24:35.894Z,100.00
2023-05-16T18:27:03.398Z,100.00
2023-05-16T18:29:30.374Z,100.00
2023-05-16T18:31:57.868Z,100.00
2023-05-16T18:34:24.695Z,100.00
2023-05-16T18:36:51.797Z,100.00
2023-05-16T18:39:20.402Z,100.00
2023-05-16T18:41:48.446Z,100.00
2023-05-16T18:44:18.155Z,100.00
2023-05-16T18:46:46.527Z,100.00
2023-05-16T18:49:14.264Z,100.00
2023-05-16T18:51:41.471Z,100.00
2023-05-16T18:54:08.336Z,100.00
2023-05-16T18:56:35.512Z,100.00
2023-05-16T18:59:02.355Z,100.00
2023-05-16T19:01:29.551Z,100.00
2023-05-16T19:03:56.797Z,100.00
2023-05-16T19:06:24.212Z,100.00
2023-05-16T19:08:51.216Z,100.00
2023-05-16T19:11:18.418Z,100.00
2023-05-16T19:13:45.906Z,100.00
2023-05-16T19:16:13.840Z,100.00
2023-05-16T19:18:40.858Z,100.00
2023-05-16T19:21:08.137Z,100.00
2023-05-16T19:23:35.142Z,100.00
2023-05-16T19:26:02.278Z,100.00
2023-05-16T19:28:29.088Z,100.00
2023-05-16T19:30:56.412Z,100.00
2023-05-16T19:33:23.247Z,100.00
2023-05-16T19:35:52.928Z,100.00
2023-05-16T19:38:24.632Z,100.00
2023-05-16T19:40:51.991Z,100.00
2023-05-16T19:43:19.035Z,100.00
2023-05-16T19:45:46.187Z,100.00
2023-05-16T19:48:13.693Z,100.00
2023-05-16T19:50:41.178Z,100.00
2023-05-16T19:53:08.162Z,100.00
2023-05-16T19:55:37.776Z,100.00
2023-05-16T19:58:05.016Z,100.00
2023-05-16T20:00:32.183Z,100.00
2023-05-16T20:02:59.166Z,100.00
2023-05-16T20:05:27.124Z,100.00
2023-05-16T20:07:55.392Z,100.00
2023-05-16T20:10:22.502Z,100.00
2023-05-16T20:12:49.701Z,100.00
2023-05-16T20:15:17.178Z,100.00
2023-05-16T20:17:44.091Z,100.00
2023-05-16T20:20:11.324Z,100.00
2023-05-16T20:22:41.954Z,100.00
2023-05-16T20:25:10.063Z,100.00
2023-05-16T20:27:36.894Z,100.00
2023-05-16T20:30:04.898Z,100.00
2023-05-16T20:32:31.820Z,100.00
2023-05-16T20:34:59.130Z,100.00
2023-05-16T20:37:26.912Z,100.00
2023-05-16T20:39:54.591Z,100.00
2023-05-16T20:42:21.809Z,100.00
2023-05-16T20:44:49.012Z,100.00
2023-05-16T20:47:18.048Z,100.00
2023-05-16T20:49:45.138Z,100.00
2023-05-16T20:52:11.933Z,100.00
2023-05-16T20:54:38.994Z,100.00
2023-05-16T20:57:06.086Z,100.00
2023-05-16T20:59:34.002Z,100.00
2023-05-16T21:02:01.594Z,100.00
2023-05-16T21:04:28.899Z,100.00
2023-05-16T21:06:55.689Z,100.00
2023-05-16T21:09:22.757Z,100.00
2023-05-16T21:11:50.001Z,100.00
2023-05-16T21:14:17.175Z,100.00
2023-05-16T21:16:44.011Z,100.00
2023-05-16T21:19:11.172Z,100.00
2023-05-16T21:21:38.224Z,100.00
2023-05-16T21:24:05.754Z,100.00
2023-05-16T21:26:32.655Z,100.00
2023-05-16T21:28:59.833Z,100.00
2023-05-16T21:31:26.730Z,100.00
2023-05-16T21:33:53.880Z,100.00
2023-05-16T21:36:21.168Z,100.00
2023-05-16T21:38:48.466Z,100.00
2023-05-16T21:41:15.382Z,100.00
2023-05-16T21:43:42.588Z,100.00
2023-05-16T21:46:09.500Z,100.00
2023-05-16T21:48:36.692Z,100.00
2023-05-16T21:51:03.773Z,100.00
2023-05-16T21:53:30.902Z,100.00
2023-05-16T21:55:57.794Z,100.00
2023-05-16T21:58:25.491Z,100.00
2023-05-16T22:00:52.478Z,100.00
2023-05-16T22:03:21.273Z,100.00
2023-05-16T22:05:48.486Z,100.00
2023-05-16T22:08:15.865Z,100.00
2023-05-16T22:10:42.929Z,100.00
2023-05-16T22:13:10.172Z,100.00
2023-05-16T22:15:37.004Z,100.00
2023-05-16T22:18:04.333Z,100.00
2023-05-16T22:20:31.338Z,100.00
2023-05-16T22:22:58.504Z,100.00
2023-05-16T22:25:25.398Z,100.00
2023-05-16T22:27:52.680Z,100.00
2023-05-16T22:30:19.546Z,100.00
2023-05-16T22:32:47.133Z,100.00
2023-05-16T22:35:14.493Z,100.00
2023-05-16T22:37:42.212Z,100.00
2023-05-16T22:40:09.280Z,100.00
2023-05-16T22:42:36.474Z,100.00
2023-05-16T22:45:03.956Z,100.00
2023-05-16T22:47:33.076Z,100.00
2023-05-16T22:49:59.992Z,100.00
2023-05-16T22:52:27.101Z,100.00
2023-05-16T22:54:54.091Z,100.00
2023-05-16T22:57:21.442Z,100.00
2023-05-16T22:59:48.178Z,100.00
2023-05-16T23:02:15.405Z,100.00
2023-05-16T23:04:42.382Z,100.00
2023-05-16T23:07:09.700Z,100.00
2023-05-16T23:09:36.849Z,100.00
2023-05-16T23:12:04.147Z,100.00
2023-05-16T23:14:30.941Z,100.00
2023-05-16T23:16:58.009Z,100.00
2023-05-16T23:19:25.108Z,100.00
2023-05-16T23:21:52.343Z,100.00
2023-05-16T23:24:19.172Z,100.00
2023-05-16T23:26:46.438Z,100.00
2023-05-16T23:29:13.182Z,100.00
2023-05-16T23:31:40.320Z,100.00
2023-05-16T23:34:07.367Z,100.00
2023-05-16T23:36:34.487Z,100.00
2023-05-16T23:39:01.288Z,100.00
2023-05-16T23:41:28.352Z,100.00
2023-05-16T23:43:55.394Z,100.00
2023-05-16T23:46:22.408Z,100.00
2023-05-16T23:48:49.292Z,100.00
2023-05-16T23:51:16.407Z,100.00
2023-05-16T23:53:43.325Z,100.00
2023-05-16T23:56:10.606Z,100.00
2023-05-16T23:58:37.577Z,100.00
